sensor_id;sensor_type;location;lat;lon;timestamp;P1;durP1;ratioP1;P2;durP2;ratioP2
17169;SDS011;8700;48.222;16.342;2023-09-30T00:02:54;13.43;;;12.23;;
17169;SDS011;8700;48.222;16.342;2023-09-30T00:06:16;11.90;;;10.88;;
17169;SDS011;8700;48.222;16.342;2023-09-30T00:09:41;11.85;;;10.73;;
17169;SDS011;8700;48.222;16.342;2023-09-30T00:13:04;14.07;;;12.68;;
17169;SDS011;8700;48.222;16.342;2023-09-30T00:16:29;13.77;;;12.43;;
17169;SDS011;8700;48.222;16.342;2023-09-30T00:19:51;12.10;;;11.15;;
17169;SDS011;8700;48.222;16.342;2023-09-30T00:23:14;12.90;;;11.60;;
17169;SDS011;8700;48.222;16.342;2023-09-30T00:26:37;12.45;;;10.77;;
17169;SDS011;8700;48.222;16.342;2023-09-30T00:29:59;12.75;;;11.55;;
17169;SDS011;8700;48.222;16.342;2023-09-30T00:33:24;12.93;;;11.40;;
17169;SDS011;8700;48.222;16.342;2023-09-30T00:36:47;12.32;;;11.35;;
17169;SDS011;8700;48.222;16.342;2023-09-30T00:40:09;14.50;;;12.73;;
17169;SDS011;8700;48.222;16.342;2023-09-30T00:43:34;13.27;;;11.90;;
17169;SDS011;8700;48.222;16.342;2023-09-30T00:46:56;12.38;;;11.23;;
17169;SDS011;8700;48.222;16.342;2023-09-30T00:50:20;13.45;;;12.25;;
17169;SDS011;8700;48.222;16.342;2023-09-30T00:53:42;13.73;;;12.35;;
17169;SDS011;8700;48.222;16.342;2023-09-30T00:57:05;13.40;;;12.27;;
17169;SDS011;8700;48.222;16.342;2023-09-30T01:00:28;14.20;;;12.80;;
17169;SDS011;8700;48.222;16.342;2023-09-30T01:03:51;14.43;;;13.07;;
17169;SDS011;8700;48.222;16.342;2023-09-30T01:07:15;14.70;;;13.48;;
17169;SDS011;8700;48.222;16.342;2023-09-30T01:10:38;15.32;;;12.77;;
17169;SDS011;8700;48.222;16.342;2023-09-30T01:14:00;14.68;;;13.35;;
17169;SDS011;8700;48.222;16.342;2023-09-30T01:17:22;15.45;;;13.90;;
17169;SDS011;8700;48.222;16.342;2023-09-30T01:20:44;15.80;;;14.27;;
17169;SDS011;8700;48.222;16.342;2023-09-30T01:24:08;15.60;;;14.27;;
17169;SDS011;8700;48.222;16.342;2023-09-30T01:27:30;16.80;;;15.32;;
17169;SDS011;8700;48.222;16.342;2023-09-30T01:30:53;16.30;;;14.90;;
17169;SDS011;8700;48.222;16.342;2023-09-30T01:34:15;16.05;;;14.65;;
17169;SDS011;8700;48.222;16.342;2023-09-30T01:37:38;16.45;;;14.88;;
17169;SDS011;8700;48.222;16.342;2023-09-30T01:41:02;16.95;;;15.20;;
17169;SDS011;8700;48.222;16.342;2023-09-30T01:44:24;16.58;;;14.80;;
17169;SDS011;8700;48.222;16.342;2023-09-30T01:47:47;15.32;;;14.02;;
17169;SDS011;8700;48.222;16.342;2023-09-30T01:51:09;14.73;;;13.48;;
17169;SDS011;8700;48.222;16.342;2023-09-30T01:54:31;15.15;;;13.60;;
17169;SDS011;8700;48.222;16.342;2023-09-30T01:57:55;14.70;;;13.23;;
17169;SDS011;8700;48.222;16.342;2023-09-30T02:01:17;17.08;;;14.13;;
17169;SDS011;8700;48.222;16.342;2023-09-30T02:04:39;15.63;;;14.23;;
17169;SDS011;8700;48.222;16.342;2023-09-30T02:08:02;16.42;;;14.93;;
17169;SDS011;8700;48.222;16.342;2023-09-30T02:11:26;15.57;;;14.18;;
17169;SDS011;8700;48.222;16.342;2023-09-30T02:14:50;14.98;;;13.63;;
17169;SDS011;8700;48.222;16.342;2023-09-30T02:18:12;14.95;;;13.73;;
17169;SDS011;8700;48.222;16.342;2023-09-30T02:21:36;15.07;;;13.57;;
17169;SDS011;8700;48.222;16.342;2023-09-30T02:24:58;14.07;;;12.68;;
17169;SDS011;8700;48.222;16.342;2023-09-30T02:28:24;13.98;;;12.55;;
17169;SDS011;8700;48.222;16.342;2023-09-30T02:31:48;14.55;;;13.13;;
17169;SDS011;8700;48.222;16.342;2023-09-30T02:35:11;11.63;;;10.70;;
17169;SDS011;8700;48.222;16.342;2023-09-30T02:38:35;10.05;;;9.15;;
17169;SDS011;8700;48.222;16.342;2023-09-30T02:41:57;11.27;;;10.27;;
17169;SDS011;8700;48.222;16.342;2023-09-30T02:45:22;10.38;;;9.48;;
17169;SDS011;8700;48.222;16.342;2023-09-30T02:53:18;9.10;;;8.40;;
17169;SDS011;8700;48.222;16.342;2023-09-30T02:56:42;8.85;;;8.02;;
17169;SDS011;8700;48.222;16.342;2023-09-30T03:00:08;10.00;;;9.20;;
17169;SDS011;8700;48.222;16.342;2023-09-30T03:03:46;9.73;;;8.52;;
17169;SDS011;8700;48.222;16.342;2023-09-30T03:07:09;9.30;;;8.50;;
17169;SDS011;8700;48.222;16.342;2023-09-30T03:10:33;8.55;;;7.95;;
17169;SDS011;8700;48.222;16.342;2023-09-30T03:14:00;8.50;;;7.80;;
17169;SDS011;8700;48.222;16.342;2023-09-30T03:17:22;8.77;;;7.97;;
17169;SDS011;8700;48.222;16.342;2023-09-30T03:20:45;10.20;;;9.30;;
17169;SDS011;8700;48.222;16.342;2023-09-30T03:24:10;9.10;;;8.20;;
17169;SDS011;8700;48.222;16.342;2023-09-30T03:27:34;9.30;;;8.43;;
17169;SDS011;8700;48.222;16.342;2023-09-30T03:30:56;9.48;;;8.77;;
17169;SDS011;8700;48.222;16.342;2023-09-30T03:34:19;9.10;;;8.50;;
17169;SDS011;8700;48.222;16.342;2023-09-30T03:37:41;9.68;;;8.52;;
17169;SDS011;8700;48.222;16.342;2023-09-30T03:41:03;10.45;;;9.55;;
17169;SDS011;8700;48.222;16.342;2023-09-30T03:44:29;9.75;;;8.85;;
17169;SDS011;8700;48.222;16.342;2023-09-30T03:47:52;9.75;;;8.82;;
17169;SDS011;8700;48.222;16.342;2023-09-30T03:51:14;10.18;;;9.00;;
17169;SDS011;8700;48.222;16.342;2023-09-30T03:54:37;10.07;;;9.18;;
17169;SDS011;8700;48.222;16.342;2023-09-30T03:58:01;11.35;;;10.25;;
17169;SDS011;8700;48.222;16.342;2023-09-30T04:01:25;13.82;;;11.57;;
17169;SDS011;8700;48.222;16.342;2023-09-30T04:04:48;12.25;;;11.25;;
17169;SDS011;8700;48.222;16.342;2023-09-30T04:08:13;12.73;;;11.50;;
17169;SDS011;8700;48.222;16.342;2023-09-30T04:11:36;12.90;;;11.60;;
17169;SDS011;8700;48.222;16.342;2023-09-30T04:14:59;12.95;;;11.75;;
17169;SDS011;8700;48.222;16.342;2023-09-30T04:18:22;12.82;;;11.55;;
17169;SDS011;8700;48.222;16.342;2023-09-30T04:21:46;12.38;;;11.27;;
17169;SDS011;8700;48.222;16.342;2023-09-30T04:25:09;14.45;;;13.15;;
17169;SDS011;8700;48.222;16.342;2023-09-30T04:28:32;14.10;;;12.80;;
17169;SDS011;8700;48.222;16.342;2023-09-30T04:31:55;14.75;;;12.88;;
17169;SDS011;8700;48.222;16.342;2023-09-30T04:35:19;16.98;;;13.15;;
17169;SDS011;8700;48.222;16.342;2023-09-30T04:38:41;13.15;;;11.40;;
17169;SDS011;8700;48.222;16.342;2023-09-30T04:42:03;14.40;;;12.93;;
17169;SDS011;8700;48.222;16.342;2023-09-30T04:45:30;17.27;;;13.65;;
17169;SDS011;8700;48.222;16.342;2023-09-30T04:48:54;16.33;;;14.65;;
17169;SDS011;8700;48.222;16.342;2023-09-30T04:52:18;16.58;;;13.98;;
17169;SDS011;8700;48.222;16.342;2023-09-30T04:55:41;15.32;;;13.70;;
17169;SDS011;8700;48.222;16.342;2023-09-30T04:59:04;16.58;;;14.20;;
17169;SDS011;8700;48.222;16.342;2023-09-30T05:02:27;18.95;;;13.35;;
17169;SDS011;8700;48.222;16.342;2023-09-30T05:05:49;16.58;;;13.50;;
17169;SDS011;8700;48.222;16.342;2023-09-30T05:09:14;19.55;;;14.93;;
17169;SDS011;8700;48.222;16.342;2023-09-30T05:12:37;17.67;;;14.25;;
17169;SDS011;8700;48.222;16.342;2023-09-30T05:16:00;18.70;;;13.77;;
17169;SDS011;8700;48.222;16.342;2023-09-30T05:19:23;18.42;;;14.15;;
17169;SDS011;8700;48.222;16.342;2023-09-30T05:22:46;18.17;;;13.77;;
17169;SDS011;8700;48.222;16.342;2023-09-30T05:26:10;18.33;;;14.07;;
17169;SDS011;8700;48.222;16.342;2023-09-30T05:29:32;18.95;;;14.02;;
17169;SDS011;8700;48.222;16.342;2023-09-30T05:32:54;18.17;;;14.10;;
17169;SDS011;8700;48.222;16.342;2023-09-30T05:36:18;23.20;;;14.50;;
17169;SDS011;8700;48.222;16.342;2023-09-30T05:39:40;20.00;;;14.98;;
17169;SDS011;8700;48.222;16.342;2023-09-30T05:43:06;17.90;;;14.50;;
17169;SDS011;8700;48.222;16.342;2023-09-30T05:46:28;18.70;;;14.52;;
17169;SDS011;8700;48.222;16.342;2023-09-30T05:49:52;17.48;;;14.13;;
17169;SDS011;8700;48.222;16.342;2023-09-30T05:53:15;18.20;;;13.68;;
17169;SDS011;8700;48.222;16.342;2023-09-30T05:56:37;25.67;;;16.30;;
17169;SDS011;8700;48.222;16.342;2023-09-30T06:00:04;24.23;;;14.77;;
17169;SDS011;8700;48.222;16.342;2023-09-30T06:03:40;20.17;;;14.02;;
17169;SDS011;8700;48.222;16.342;2023-09-30T06:07:02;20.38;;;15.20;;
17169;SDS011;8700;48.222;16.342;2023-09-30T06:10:25;19.52;;;14.77;;
17169;SDS011;8700;48.222;16.342;2023-09-30T06:13:49;18.52;;;15.00;;
17169;SDS011;8700;48.222;16.342;2023-09-30T06:17:14;22.20;;;14.68;;
17169;SDS011;8700;48.222;16.342;2023-09-30T06:20:37;19.08;;;14.98;;
17169;SDS011;8700;48.222;16.342;2023-09-30T06:23:59;19.77;;;14.02;;
17169;SDS011;8700;48.222;16.342;2023-09-30T06:27:22;19.65;;;13.50;;
17169;SDS011;8700;48.222;16.342;2023-09-30T06:30:44;20.77;;;15.45;;
17169;SDS011;8700;48.222;16.342;2023-09-30T06:34:08;19.83;;;14.63;;
17169;SDS011;8700;48.222;16.342;2023-09-30T06:37:31;21.08;;;15.15;;
17169;SDS011;8700;48.222;16.342;2023-09-30T06:40:54;20.52;;;14.68;;
17169;SDS011;8700;48.222;16.342;2023-09-30T06:44:16;19.67;;;14.68;;
17169;SDS011;8700;48.222;16.342;2023-09-30T06:47:40;24.52;;;16.10;;
17169;SDS011;8700;48.222;16.342;2023-09-30T06:51:04;18.60;;;15.75;;
17169;SDS011;8700;48.222;16.342;2023-09-30T06:54:26;21.42;;;14.43;;
17169;SDS011;8700;48.222;16.342;2023-09-30T06:57:49;19.00;;;13.85;;
17169;SDS011;8700;48.222;16.342;2023-09-30T07:01:15;21.38;;;15.00;;
17169;SDS011;8700;48.222;16.342;2023-09-30T07:04:39;17.33;;;14.55;;
17169;SDS011;8700;48.222;16.342;2023-09-30T07:08:04;19.40;;;15.52;;
17169;SDS011;8700;48.222;16.342;2023-09-30T07:11:27;20.60;;;15.15;;
17169;SDS011;8700;48.222;16.342;2023-09-30T07:14:52;19.58;;;15.02;;
17169;SDS011;8700;48.222;16.342;2023-09-30T07:18:18;24.15;;;13.18;;
17169;SDS011;8700;48.222;16.342;2023-09-30T07:21:41;19.50;;;13.63;;
17169;SDS011;8700;48.222;16.342;2023-09-30T07:25:05;21.23;;;16.55;;
17169;SDS011;8700;48.222;16.342;2023-09-30T07:28:28;19.60;;;14.85;;
17169;SDS011;8700;48.222;16.342;2023-09-30T07:31:52;17.48;;;13.30;;
17169;SDS011;8700;48.222;16.342;2023-09-30T07:35:14;19.20;;;14.60;;
17169;SDS011;8700;48.222;16.342;2023-09-30T07:38:37;17.77;;;13.88;;
17169;SDS011;8700;48.222;16.342;2023-09-30T07:42:03;20.20;;;14.40;;
17169;SDS011;8700;48.222;16.342;2023-09-30T07:45:31;21.27;;;14.10;;
17169;SDS011;8700;48.222;16.342;2023-09-30T07:48:54;20.52;;;14.73;;
17169;SDS011;8700;48.222;16.342;2023-09-30T07:52:17;20.15;;;14.10;;
17169;SDS011;8700;48.222;16.342;2023-09-30T07:55:41;19.60;;;14.25;;
17169;SDS011;8700;48.222;16.342;2023-09-30T07:59:06;20.58;;;14.60;;
17169;SDS011;8700;48.222;16.342;2023-09-30T08:02:29;19.75;;;14.85;;
17169;SDS011;8700;48.222;16.342;2023-09-30T08:10:26;17.02;;;13.60;;
17169;SDS011;8700;48.222;16.342;2023-09-30T08:13:53;18.20;;;13.98;;
17169;SDS011;8700;48.222;16.342;2023-09-30T08:17:18;17.63;;;12.32;;
17169;SDS011;8700;48.222;16.342;2023-09-30T08:20:44;16.42;;;11.75;;
17169;SDS011;8700;48.222;16.342;2023-09-30T08:28:52;18.42;;;13.63;;
17169;SDS011;8700;48.222;16.342;2023-09-30T08:32:14;15.73;;;12.27;;
17169;SDS011;8700;48.222;16.342;2023-09-30T08:35:37;15.93;;;12.15;;
17169;SDS011;8700;48.222;16.342;2023-09-30T08:39:00;18.27;;;13.15;;
17169;SDS011;8700;48.222;16.342;2023-09-30T08:42:22;20.42;;;12.38;;
17169;SDS011;8700;48.222;16.342;2023-09-30T08:45:45;22.10;;;13.45;;
17169;SDS011;8700;48.222;16.342;2023-09-30T08:49:11;18.13;;;13.00;;
17169;SDS011;8700;48.222;16.342;2023-09-30T09:01:44;16.15;;;11.98;;
17169;SDS011;8700;48.222;16.342;2023-09-30T09:05:06;16.85;;;12.23;;
17169;SDS011;8700;48.222;16.342;2023-09-30T09:13:15;16.00;;;10.80;;
17169;SDS011;8700;48.222;16.342;2023-09-30T09:16:49;19.10;;;13.60;;
17169;SDS011;8700;48.222;16.342;2023-09-30T09:20:16;14.00;;;11.10;;
17169;SDS011;8700;48.222;16.342;2023-09-30T09:23:44;14.35;;;11.02;;
17169;SDS011;8700;48.222;16.342;2023-09-30T09:27:09;12.77;;;9.20;;
17169;SDS011;8700;48.222;16.342;2023-09-30T09:30:37;11.38;;;9.25;;
17169;SDS011;8700;48.222;16.342;2023-09-30T09:34:03;15.07;;;10.13;;
17169;SDS011;8700;48.222;16.342;2023-09-30T09:37:34;13.30;;;10.23;;
17169;SDS011;8700;48.222;16.342;2023-09-30T09:40:58;15.95;;;11.25;;
17169;SDS011;8700;48.222;16.342;2023-09-30T09:44:21;10.98;;;8.70;;
17169;SDS011;8700;48.222;16.342;2023-09-30T09:47:44;14.90;;;11.52;;
17169;SDS011;8700;48.222;16.342;2023-09-30T09:51:09;14.70;;;10.07;;
17169;SDS011;8700;48.222;16.342;2023-09-30T09:54:33;14.43;;;10.10;;
17169;SDS011;8700;48.222;16.342;2023-09-30T09:57:56;15.82;;;11.68;;
17169;SDS011;8700;48.222;16.342;2023-09-30T10:01:20;14.98;;;10.50;;
17169;SDS011;8700;48.222;16.342;2023-09-30T10:04:42;14.60;;;10.55;;
17169;SDS011;8700;48.222;16.342;2023-09-30T10:08:07;15.75;;;12.27;;
17169;SDS011;8700;48.222;16.342;2023-09-30T10:11:33;16.48;;;10.68;;
17169;SDS011;8700;48.222;16.342;2023-09-30T10:14:55;15.32;;;11.38;;
17169;SDS011;8700;48.222;16.342;2023-09-30T10:18:17;17.83;;;11.77;;
17169;SDS011;8700;48.222;16.342;2023-09-30T10:21:40;20.05;;;13.68;;
17169;SDS011;8700;48.222;16.342;2023-09-30T10:25:44;17.75;;;12.68;;
17169;SDS011;8700;48.222;16.342;2023-09-30T10:29:08;15.30;;;11.15;;
17169;SDS011;8700;48.222;16.342;2023-09-30T10:36:31;13.35;;;10.43;;
17169;SDS011;8700;48.222;16.342;2023-09-30T10:39:57;14.27;;;10.80;;
17169;SDS011;8700;48.222;16.342;2023-09-30T10:43:30;15.10;;;11.05;;
17169;SDS011;8700;48.222;16.342;2023-09-30T10:46:53;14.77;;;10.63;;
17169;SDS011;8700;48.222;16.342;2023-09-30T10:54:12;14.57;;;10.32;;
17169;SDS011;8700;48.222;16.342;2023-09-30T10:57:35;15.07;;;10.25;;
17169;SDS011;8700;48.222;16.342;2023-09-30T11:00:59;14.82;;;10.73;;
17169;SDS011;8700;48.222;16.342;2023-09-30T11:04:24;14.30;;;9.77;;
17169;SDS011;8700;48.222;16.342;2023-09-30T11:07:48;14.48;;;10.32;;
17169;SDS011;8700;48.222;16.342;2023-09-30T11:11:12;12.95;;;9.27;;
17169;SDS011;8700;48.222;16.342;2023-09-30T11:14:36;15.80;;;9.82;;
17169;SDS011;8700;48.222;16.342;2023-09-30T11:18:14;15.77;;;11.52;;
17169;SDS011;8700;48.222;16.342;2023-09-30T11:21:37;12.88;;;10.15;;
17169;SDS011;8700;48.222;16.342;2023-09-30T11:25:00;12.25;;;9.82;;
17169;SDS011;8700;48.222;16.342;2023-09-30T11:28:23;11.55;;;9.32;;
17169;SDS011;8700;48.222;16.342;2023-09-30T11:31:47;13.88;;;8.90;;
17169;SDS011;8700;48.222;16.342;2023-09-30T11:35:22;11.68;;;9.63;;
17169;SDS011;8700;48.222;16.342;2023-09-30T11:38:45;12.50;;;10.38;;
17169;SDS011;8700;48.222;16.342;2023-09-30T11:42:14;13.70;;;10.80;;
17169;SDS011;8700;48.222;16.342;2023-09-30T11:45:37;15.52;;;10.32;;
17169;SDS011;8700;48.222;16.342;2023-09-30T11:49:00;22.50;;;11.68;;
17169;SDS011;8700;48.222;16.342;2023-09-30T11:52:27;15.10;;;10.77;;
17169;SDS011;8700;48.222;16.342;2023-09-30T11:55:49;15.38;;;10.48;;
17169;SDS011;8700;48.222;16.342;2023-09-30T11:59:16;15.32;;;10.75;;
17169;SDS011;8700;48.222;16.342;2023-09-30T12:02:39;14.65;;;11.93;;
17169;SDS011;8700;48.222;16.342;2023-09-30T12:06:01;16.33;;;10.32;;
17169;SDS011;8700;48.222;16.342;2023-09-30T12:09:26;16.27;;;11.02;;
17169;SDS011;8700;48.222;16.342;2023-09-30T12:12:49;15.02;;;11.02;;
17169;SDS011;8700;48.222;16.342;2023-09-30T12:16:13;14.50;;;10.27;;
17169;SDS011;8700;48.222;16.342;2023-09-30T12:19:35;15.52;;;8.68;;
17169;SDS011;8700;48.222;16.342;2023-09-30T12:22:57;14.35;;;9.35;;
17169;SDS011;8700;48.222;16.342;2023-09-30T12:30:56;11.75;;;8.40;;
17169;SDS011;8700;48.222;16.342;2023-09-30T12:34:19;10.60;;;8.15;;
17169;SDS011;8700;48.222;16.342;2023-09-30T12:37:43;10.60;;;7.15;;
17169;SDS011;8700;48.222;16.342;2023-09-30T12:41:06;11.65;;;8.50;;
17169;SDS011;8700;48.222;16.342;2023-09-30T12:44:28;13.20;;;10.02;;
17169;SDS011;8700;48.222;16.342;2023-09-30T12:47:52;12.68;;;8.75;;
17169;SDS011;8700;48.222;16.342;2023-09-30T12:51:16;12.27;;;8.98;;
17169;SDS011;8700;48.222;16.342;2023-09-30T12:54:39;13.77;;;8.18;;
17169;SDS011;8700;48.222;16.342;2023-09-30T12:58:01;14.10;;;9.38;;
17169;SDS011;8700;48.222;16.342;2023-09-30T13:01:23;10.95;;;8.13;;
17169;SDS011;8700;48.222;16.342;2023-09-30T13:04:50;11.18;;;9.02;;
17169;SDS011;8700;48.222;16.342;2023-09-30T13:08:14;12.27;;;8.10;;
17169;SDS011;8700;48.222;16.342;2023-09-30T13:11:37;15.98;;;11.05;;
17169;SDS011;8700;48.222;16.342;2023-09-30T13:15:01;11.85;;;8.55;;
17169;SDS011;8700;48.222;16.342;2023-09-30T13:18:25;11.80;;;7.55;;
17169;SDS011;8700;48.222;16.342;2023-09-30T13:21:52;13.43;;;8.68;;
17169;SDS011;8700;48.222;16.342;2023-09-30T13:25:17;13.07;;;8.57;;
17169;SDS011;8700;48.222;16.342;2023-09-30T13:28:41;14.02;;;8.60;;
17169;SDS011;8700;48.222;16.342;2023-09-30T13:32:05;15.20;;;10.55;;
17169;SDS011;8700;48.222;16.342;2023-09-30T13:35:30;12.38;;;8.43;;
17169;SDS011;8700;48.222;16.342;2023-09-30T13:38:54;13.75;;;8.32;;
17169;SDS011;8700;48.222;16.342;2023-09-30T13:42:18;12.70;;;9.27;;
17169;SDS011;8700;48.222;16.342;2023-09-30T13:45:41;11.38;;;8.27;;
17169;SDS011;8700;48.222;16.342;2023-09-30T13:49:04;12.30;;;8.63;;
17169;SDS011;8700;48.222;16.342;2023-09-30T13:52:26;16.13;;;10.85;;
17169;SDS011;8700;48.222;16.342;2023-09-30T13:55:51;12.98;;;9.15;;
17169;SDS011;8700;48.222;16.342;2023-09-30T13:59:17;14.65;;;10.43;;
17169;SDS011;8700;48.222;16.342;2023-09-30T14:02:45;13.43;;;9.93;;
17169;SDS011;8700;48.222;16.342;2023-09-30T14:06:11;13.18;;;9.18;;
17169;SDS011;8700;48.222;16.342;2023-09-30T14:09:35;14.40;;;10.40;;
17169;SDS011;8700;48.222;16.342;2023-09-30T14:12:58;13.55;;;10.60;;
17169;SDS011;8700;48.222;16.342;2023-09-30T14:16:21;14.60;;;11.10;;
17169;SDS011;8700;48.222;16.342;2023-09-30T14:19:43;13.85;;;10.52;;
17169;SDS011;8700;48.222;16.342;2023-09-30T14:23:06;20.80;;;10.75;;
17169;SDS011;8700;48.222;16.342;2023-09-30T14:26:30;13.90;;;9.32;;
17169;SDS011;8700;48.222;16.342;2023-09-30T14:29:55;15.10;;;10.73;;
17169;SDS011;8700;48.222;16.342;2023-09-30T14:33:18;14.15;;;11.55;;
17169;SDS011;8700;48.222;16.342;2023-09-30T14:36:42;18.48;;;11.25;;
17169;SDS011;8700;48.222;16.342;2023-09-30T14:40:05;15.73;;;11.18;;
17169;SDS011;8700;48.222;16.342;2023-09-30T14:43:30;15.63;;;11.95;;
17169;SDS011;8700;48.222;16.342;2023-09-30T14:46:54;13.00;;;10.63;;
17169;SDS011;8700;48.222;16.342;2023-09-30T14:50:17;13.77;;;10.30;;
17169;SDS011;8700;48.222;16.342;2023-09-30T14:53:40;12.90;;;9.73;;
17169;SDS011;8700;48.222;16.342;2023-09-30T14:57:03;14.23;;;9.73;;
17169;SDS011;8700;48.222;16.342;2023-09-30T15:00:26;13.52;;;10.40;;
17169;SDS011;8700;48.222;16.342;2023-09-30T15:03:50;11.80;;;8.18;;
17169;SDS011;8700;48.222;16.342;2023-09-30T15:07:13;11.57;;;8.38;;
17169;SDS011;8700;48.222;16.342;2023-09-30T15:10:35;11.10;;;8.13;;
17169;SDS011;8700;48.222;16.342;2023-09-30T15:13:58;9.35;;;7.75;;
17169;SDS011;8700;48.222;16.342;2023-09-30T15:17:21;10.98;;;7.65;;
17169;SDS011;8700;48.222;16.342;2023-09-30T15:20:45;9.63;;;7.45;;
17169;SDS011;8700;48.222;16.342;2023-09-30T15:24:10;10.57;;;7.32;;
17169;SDS011;8700;48.222;16.342;2023-09-30T15:27:32;7.70;;;6.40;;
17169;SDS011;8700;48.222;16.342;2023-09-30T15:30:55;10.93;;;6.75;;
17169;SDS011;8700;48.222;16.342;2023-09-30T15:34:18;7.35;;;6.63;;
17169;SDS011;8700;48.222;16.342;2023-09-30T15:37:44;6.35;;;5.40;;
17169;SDS011;8700;48.222;16.342;2023-09-30T15:41:07;7.32;;;4.72;;
17169;SDS011;8700;48.222;16.342;2023-09-30T15:44:33;6.68;;;5.57;;
17169;SDS011;8700;48.222;16.342;2023-09-30T15:47:56;6.25;;;5.45;;
17169;SDS011;8700;48.222;16.342;2023-09-30T15:51:19;5.75;;;5.25;;
17169;SDS011;8700;48.222;16.342;2023-09-30T15:54:43;5.95;;;5.43;;
17169;SDS011;8700;48.222;16.342;2023-09-30T15:58:06;6.47;;;5.80;;
17169;SDS011;8700;48.222;16.342;2023-09-30T16:01:28;6.38;;;5.78;;
17169;SDS011;8700;48.222;16.342;2023-09-30T16:04:51;7.03;;;5.72;;
17169;SDS011;8700;48.222;16.342;2023-09-30T16:08:14;5.53;;;5.03;;
17169;SDS011;8700;48.222;16.342;2023-09-30T16:11:38;6.40;;;4.82;;
17169;SDS011;8700;48.222;16.342;2023-09-30T16:15:00;5.57;;;3.97;;
17169;SDS011;8700;48.222;16.342;2023-09-30T16:18:26;5.25;;;4.10;;
17169;SDS011;8700;48.222;16.342;2023-09-30T16:21:48;6.53;;;5.95;;
17169;SDS011;8700;48.222;16.342;2023-09-30T16:25:11;3.47;;;3.17;;
17169;SDS011;8700;48.222;16.342;2023-09-30T16:28:34;4.05;;;3.63;;
17169;SDS011;8700;48.222;16.342;2023-09-30T16:31:59;2.97;;;2.78;;
17169;SDS011;8700;48.222;16.342;2023-09-30T16:35:21;3.72;;;3.42;;
17169;SDS011;8700;48.222;16.342;2023-09-30T16:38:44;3.85;;;3.47;;
17169;SDS011;8700;48.222;16.342;2023-09-30T16:42:06;3.45;;;3.15;;
17169;SDS011;8700;48.222;16.342;2023-09-30T16:45:30;2.88;;;2.65;;
17169;SDS011;8700;48.222;16.342;2023-09-30T16:48:53;3.05;;;2.75;;
17169;SDS011;8700;48.222;16.342;2023-09-30T16:52:17;4.15;;;3.78;;
17169;SDS011;8700;48.222;16.342;2023-09-30T16:55:39;2.47;;;2.28;;
17169;SDS011;8700;48.222;16.342;2023-09-30T16:59:01;3.75;;;3.05;;
17169;SDS011;8700;48.222;16.342;2023-09-30T17:02:26;5.28;;;3.40;;
17169;SDS011;8700;48.222;16.342;2023-09-30T17:05:49;3.78;;;3.03;;
17169;SDS011;8700;48.222;16.342;2023-09-30T17:09:13;4.65;;;4.32;;
17169;SDS011;8700;48.222;16.342;2023-09-30T17:12:36;3.90;;;3.60;;
17169;SDS011;8700;48.222;16.342;2023-09-30T17:16:01;5.35;;;2.85;;
17169;SDS011;8700;48.222;16.342;2023-09-30T17:19:28;6.22;;;4.55;;
17169;SDS011;8700;48.222;16.342;2023-09-30T17:22:53;3.60;;;3.17;;
17169;SDS011;8700;48.222;16.342;2023-09-30T17:26:16;3.67;;;3.17;;
17169;SDS011;8700;48.222;16.342;2023-09-30T17:29:38;3.28;;;2.97;;
17169;SDS011;8700;48.222;16.342;2023-09-30T17:33:01;4.60;;;4.10;;
17169;SDS011;8700;48.222;16.342;2023-09-30T17:36:25;4.13;;;3.72;;
17169;SDS011;8700;48.222;16.342;2023-09-30T17:39:49;4.63;;;3.05;;
17169;SDS011;8700;48.222;16.342;2023-09-30T17:43:11;3.47;;;3.17;;
17169;SDS011;8700;48.222;16.342;2023-09-30T17:46:35;5.45;;;4.30;;
17169;SDS011;8700;48.222;16.342;2023-09-30T17:49:57;4.90;;;4.45;;
17169;SDS011;8700;48.222;16.342;2023-09-30T17:53:21;4.80;;;4.35;;
17169;SDS011;8700;48.222;16.342;2023-09-30T17:56:43;4.35;;;3.97;;
17169;SDS011;8700;48.222;16.342;2023-09-30T18:00:06;4.88;;;4.38;;
17169;SDS011;8700;48.222;16.342;2023-09-30T18:03:29;4.57;;;4.15;;
17169;SDS011;8700;48.222;16.342;2023-09-30T18:06:52;4.82;;;4.50;;
17169;SDS011;8700;48.222;16.342;2023-09-30T18:10:16;4.05;;;3.75;;
17169;SDS011;8700;48.222;16.342;2023-09-30T18:13:40;4.63;;;4.22;;
17169;SDS011;8700;48.222;16.342;2023-09-30T18:17:02;5.43;;;4.93;;
17169;SDS011;8700;48.222;16.342;2023-09-30T18:20:25;4.28;;;3.88;;
17169;SDS011;8700;48.222;16.342;2023-09-30T18:23:47;4.75;;;4.35;;
17169;SDS011;8700;48.222;16.342;2023-09-30T18:27:11;5.53;;;4.85;;
17169;SDS011;8700;48.222;16.342;2023-09-30T18:30:37;4.80;;;3.78;;
17169;SDS011;8700;48.222;16.342;2023-09-30T18:34:01;5.28;;;4.38;;
17169;SDS011;8700;48.222;16.342;2023-09-30T18:37:25;6.43;;;5.30;;
17169;SDS011;8700;48.222;16.342;2023-09-30T18:40:49;5.78;;;4.70;;
17169;SDS011;8700;48.222;16.342;2023-09-30T18:44:13;4.70;;;4.07;;
17169;SDS011;8700;48.222;16.342;2023-09-30T18:47:36;5.13;;;4.63;;
17169;SDS011;8700;48.222;16.342;2023-09-30T18:50:59;5.53;;;5.00;;
17169;SDS011;8700;48.222;16.342;2023-09-30T18:54:22;5.55;;;4.80;;
17169;SDS011;8700;48.222;16.342;2023-09-30T18:57:47;6.25;;;4.43;;
17169;SDS011;8700;48.222;16.342;2023-09-30T19:01:12;5.65;;;5.15;;
17169;SDS011;8700;48.222;16.342;2023-09-30T19:04:36;6.80;;;4.65;;
17169;SDS011;8700;48.222;16.342;2023-09-30T19:07:59;6.25;;;5.65;;
17169;SDS011;8700;48.222;16.342;2023-09-30T19:11:21;6.07;;;5.50;;
17169;SDS011;8700;48.222;16.342;2023-09-30T19:14:44;4.97;;;4.47;;
17169;SDS011;8700;48.222;16.342;2023-09-30T19:18:08;5.28;;;4.78;;
17169;SDS011;8700;48.222;16.342;2023-09-30T19:21:31;8.13;;;7.03;;
17169;SDS011;8700;48.222;16.342;2023-09-30T19:24:55;5.28;;;4.78;;
17169;SDS011;8700;48.222;16.342;2023-09-30T19:28:18;7.68;;;4.55;;
17169;SDS011;8700;48.222;16.342;2023-09-30T19:31:40;7.85;;;5.28;;
17169;SDS011;8700;48.222;16.342;2023-09-30T19:35:05;8.20;;;5.10;;
17169;SDS011;8700;48.222;16.342;2023-09-30T19:38:29;6.97;;;5.28;;
17169;SDS011;8700;48.222;16.342;2023-09-30T19:41:52;7.63;;;5.40;;
17169;SDS011;8700;48.222;16.342;2023-09-30T19:45:14;5.85;;;5.30;;
17169;SDS011;8700;48.222;16.342;2023-09-30T19:48:37;5.55;;;4.93;;
17169;SDS011;8700;48.222;16.342;2023-09-30T19:52:01;6.03;;;5.15;;
17169;SDS011;8700;48.222;16.342;2023-09-30T19:55:24;7.90;;;5.45;;
17169;SDS011;8700;48.222;16.342;2023-09-30T19:58:47;6.72;;;4.85;;
17169;SDS011;8700;48.222;16.342;2023-09-30T20:02:11;6.32;;;5.72;;
17169;SDS011;8700;48.222;16.342;2023-09-30T20:05:37;7.75;;;7.03;;
17169;SDS011;8700;48.222;16.342;2023-09-30T20:09:02;8.15;;;5.53;;
17169;SDS011;8700;48.222;16.342;2023-09-30T20:12:25;7.10;;;5.78;;
17169;SDS011;8700;48.222;16.342;2023-09-30T20:15:48;6.25;;;5.70;;
17169;SDS011;8700;48.222;16.342;2023-09-30T20:19:12;8.80;;;4.50;;
17169;SDS011;8700;48.222;16.342;2023-09-30T20:22:34;6.82;;;5.65;;
17169;SDS011;8700;48.222;16.342;2023-09-30T20:25:57;7.97;;;4.85;;
17169;SDS011;8700;48.222;16.342;2023-09-30T20:29:20;7.22;;;5.20;;
17169;SDS011;8700;48.222;16.342;2023-09-30T20:32:44;6.60;;;5.45;;
17169;SDS011;8700;48.222;16.342;2023-09-30T20:36:07;6.57;;;4.97;;
17169;SDS011;8700;48.222;16.342;2023-09-30T20:39:29;6.38;;;5.50;;
17169;SDS011;8700;48.222;16.342;2023-09-30T20:42:53;8.02;;;5.43;;
17169;SDS011;8700;48.222;16.342;2023-09-30T20:46:16;7.55;;;5.40;;